createdAt,value
2022-12-15T15:01:57.943Z,36.15
2022-12-15T15:05:08.702Z,37.10
2022-12-15T15:08:03.518Z,37.37
2022-12-15T15:10:54.185Z,37.58
2022-12-15T15:13:47.515Z,37.73
2022-12-15T15:16:40.214Z,37.82
2022-12-15T15:19:39.060Z,37.79
2022-12-15T15:22:42.872Z,38.15
2022-12-15T15:25:44.627Z,37.90
2022-12-15T15:28:44.044Z,37.91
2022-12-15T15:31:43.740Z,37.99
2022-12-15T15:34:30.777Z,37.39
2022-12-15T15:37:31.603Z,37.52
2022-12-15T15:40:19.866Z,37.50
2022-12-15T15:43:20.603Z,37.97
2022-12-15T15:46:20.864Z,37.99
2022-12-15T15:49:13.486Z,38.28
2022-12-15T15:52:07.546Z,37.86
2022-12-15T15:55:01.701Z,37.63
2022-12-15T15:57:55.611Z,37.40
2022-12-15T16:01:04.812Z,37.35
2022-12-15T16:04:01.687Z,37.79
2022-12-15T16:06:56.604Z,38.01
2022-12-15T16:09:43.491Z,37.97
2022-12-15T16:12:48.625Z,37.51
2022-12-15T16:15:36.574Z,37.90
2022-12-15T16:18:30.020Z,37.85
2022-12-15T16:21:20.975Z,37.78
2022-12-15T16:24:24.611Z,37.38
2022-12-15T16:27:13.461Z,36.68
2022-12-15T16:30:06.594Z,36.67
2022-12-15T16:33:01.999Z,37.12
2022-12-15T16:35:56.676Z,36.59
2022-12-15T16:38:51.593Z,37.26
2022-12-15T16:41:44.600Z,37.50
2022-12-15T16:44:37.649Z,37.40
2022-12-15T16:47:30.614Z,37.67
2022-12-15T16:50:27.682Z,37.86
2022-12-15T16:53:23.778Z,37.69
2022-12-15T16:56:22.474Z,37.80
2022-12-15T16:59:33.034Z,37.99
2022-12-15T17:02:35.878Z,38.04
2022-12-15T17:05:26.465Z,37.67
2022-12-15T17:08:32.015Z,37.94
2022-12-15T17:11:24.847Z,37.72
2022-12-15T17:14:18.703Z,37.87
2022-12-15T17:17:14.635Z,37.94
2022-12-15T17:23:25.674Z,38.30
2022-12-15T17:26:30.964Z,38.61
2022-12-15T17:29:29.643Z,38.99
2022-12-15T17:32:16.478Z,39.41
2022-12-15T17:35:09.742Z,39.06
2022-12-15T17:37:56.744Z,39.86
2022-12-15T17:40:50.724Z,41.37
2022-12-15T17:43:38.283Z,41.22
2022-12-15T17:46:31.724Z,41.82
2022-12-15T17:49:19.658Z,43.74
2022-12-15T17:52:33.621Z,43.91
2022-12-15T17:55:35.280Z,44.07
2022-12-15T17:58:31.684Z,43.22
2022-12-15T18:01:31.748Z,42.93
2022-12-15T18:04:18.683Z,42.51
2022-12-15T18:07:12.696Z,42.60
2022-12-15T18:09:59.676Z,42.31
2022-12-15T18:12:52.675Z,41.80
2022-12-15T18:15:39.528Z,41.01
2022-12-15T18:18:32.642Z,40.83
2022-12-15T18:21:25.691Z,41.08
2022-12-15T18:24:15.512Z,41.18
2022-12-15T18:27:08.637Z,41.15
2022-12-15T18:30:02.651Z,41.27
2022-12-15T18:32:51.721Z,40.24
2022-12-15T18:35:47.697Z,40.29
2022-12-15T18:38:40.706Z,40.36
2022-12-15T18:41:27.867Z,40.42
2022-12-15T18:44:29.721Z,40.46
2022-12-15T18:47:25.716Z,40.08
2022-12-15T18:50:24.759Z,40.06
2022-12-15T18:53:28.902Z,40.00
2022-12-15T18:56:19.479Z,39.86
2022-12-15T18:59:21.700Z,40.02
2022-12-15T19:02:25.599Z,40.26
2022-12-15T19:05:35.714Z,39.95
2022-12-15T19:08:30.724Z,39.99
2022-12-15T19:11:38.915Z,39.63
2022-12-15T19:14:47.747Z,39.65
2022-12-15T19:17:53.202Z,39.75
2022-12-15T19:21:04.915Z,39.59
2022-12-15T19:23:51.752Z,39.34
2022-12-15T19:26:46.730Z,39.72
2022-12-15T19:29:33.624Z,40.06
2022-12-15T19:32:27.893Z,39.89
2022-12-15T19:35:15.147Z,40.32
2022-12-15T19:38:10.747Z,40.30
2022-12-15T19:41:06.766Z,40.31
2022-12-15T19:43:53.579Z,40.50
2022-12-15T19:46:48.753Z,40.54
2022-12-15T19:49:35.642Z,40.62
2022-12-15T19:52:29.064Z,40.20
2022-12-15T19:55:18.131Z,40.20
2022-12-15T19:58:34.749Z,39.52
2022-12-15T20:01:34.870Z,40.02
2022-12-15T20:04:28.741Z,39.94
2022-12-15T20:07:33.687Z,39.60
2022-12-15T20:10:32.582Z,39.30
2022-12-15T20:13:27.784Z,39.08
2022-12-15T20:16:17.840Z,39.04
2022-12-15T20:19:11.713Z,38.79
2022-12-15T20:21:58.523Z,38.42
2022-12-15T20:24:53.756Z,39.01
2022-12-15T20:27:43.694Z,39.47
2022-12-15T20:30:41.753Z,39.47
2022-12-15T20:33:28.917Z,39.44
2022-12-15T20:36:26.904Z,39.27
2022-12-15T20:39:26.802Z,38.69
2022-12-15T20:42:21.743Z,38.87
2022-12-15T20:45:18.969Z,38.38
2022-12-15T20:48:12.799Z,38.81
2022-12-15T20:51:04.245Z,39.11
2022-12-15T20:54:01.837Z,38.94
2022-12-15T20:56:55.724Z,38.67
2022-12-15T20:59:48.776Z,38.55
2022-12-15T21:02:43.415Z,38.76
2022-12-15T21:05:37.806Z,38.99
2022-12-15T21:08:36.760Z,38.76
2022-12-15T21:11:25.484Z,39.14
2022-12-15T21:14:29.959Z,39.24
2022-12-15T21:17:19.639Z,38.91
2022-12-15T21:20:14.391Z,38.44
2022-12-15T21:23:02.385Z,38.71
2022-12-15T21:25:56.755Z,38.04
2022-12-15T21:28:43.611Z,37.87
2022-12-15T21:31:36.771Z,38.13
2022-12-15T21:34:29.951Z,38.07
2022-12-15T21:37:29.750Z,38.23
2022-12-15T21:40:29.569Z,38.60
2022-12-15T21:43:16.563Z,38.59
2022-12-15T21:46:27.738Z,38.33
2022-12-15T21:49:20.672Z,37.80
2022-12-15T21:52:15.745Z,38.64
2022-12-15T21:55:02.621Z,38.44
2022-12-15T21:57:55.794Z,38.53
2022-12-15T22:00:48.832Z,38.63
2022-12-15T22:03:53.794Z,38.59
2022-12-15T22:06:45.867Z,38.62
2022-12-15T22:09:41.803Z,38.45
2022-12-15T22:12:34.801Z,37.51
2022-12-15T22:15:22.600Z,37.44
2022-12-15T22:18:20.810Z,37.75
2022-12-15T22:21:08.395Z,38.27
2022-12-15T22:24:01.800Z,38.12
2022-12-15T22:26:48.874Z,38.03
2022-12-15T22:29:41.830Z,38.19
2022-12-15T22:32:36.788Z,38.13
2022-12-15T22:35:33.127Z,38.27
2022-12-15T22:38:21.033Z,38.55
2022-12-15T22:41:24.793Z,38.41
2022-12-15T22:44:33.038Z,38.75
2022-12-15T22:47:19.911Z,38.82
2022-12-15T22:50:15.131Z,38.90
2022-12-15T22:53:02.002Z,38.80
2022-12-15T22:55:57.988Z,38.80
2022-12-15T22:58:47.226Z,38.60
2022-12-15T23:01:40.853Z,38.84
2022-12-15T23:04:34.913Z,38.78
2022-12-15T23:07:27.959Z,38.61
2022-12-15T23:10:42.867Z,38.71
2022-12-15T23:13:30.395Z,38.75
2022-12-15T23:16:27.874Z,38.88
2022-12-15T23:19:24.121Z,38.57
2022-12-15T23:22:17.811Z,38.94
2022-12-15T23:25:05.298Z,38.42
2022-12-15T23:27:58.868Z,38.82
2022-12-15T23:30:51.167Z,38.74
2022-12-15T23:33:44.918Z,38.48
2022-12-15T23:36:37.891Z,38.38
2022-12-15T23:39:24.782Z,38.44
2022-12-15T23:42:17.884Z,38.61
2022-12-15T23:45:11.952Z,38.52
2022-12-15T23:47:58.848Z,38.19
2022-12-15T23:50:51.863Z,38.34
2022-12-15T23:53:40.350Z,38.44
2022-12-15T23:56:33.856Z,38.22
2022-12-15T23:59:27.032Z,38.47
